SKUI/UIB METAR and TAF weather

Enter ICAO airport designator
Station Type Date Time Source
SKUI METAR 2021/04/12 14:00 UTC NOAA

SKUI 121400Z 15005KT 5000 VCSH BKN007 OVC070 25/25 Q1009 RMK VCSH SE A2982


Station Type Date Time Source
SKUI Decoded METAR 2021/04/12 14:00 UTC NOAA

Quibdo / El Carano, Colombia (SKUI) 05-43N 076-37W
Apr 12, 2021 - 10:00 AM EDT / 2021.04.12 1400 UTC
Wind: from the SSE (150 degrees) at 6 MPH (5 KT):0
Visibility: 3 mile(s):0
Sky conditions: overcast
Weather: showers in the vicinity; showers in the vicinity
Temperature: 77 F (25 C)
Dew Point: 77 F (25 C)
Relative Humidity: 100%
Pressure (altimeter): 29.80 in. Hg (1009 hPa)
ob: SKUI 121400Z 15005KT 5000 VCSH BKN007 OVC070 25/25 Q1009 RMK VCSH SE A2982
cycle: 14

Station Type Date Time Source
SKUI TAF UTC NOAA

Error!

Example: see airport list